sensor_id;sensor_type;location;lat;lon;timestamp;P1;durP1;ratioP1;P2;durP2;ratioP2
72728;SDS011;60843;52.062;4.508;2023-04-24T00:01:28;1.50;;;0.70;;
72728;SDS011;60843;52.062;4.508;2023-04-24T00:03:56;3.63;;;1.20;;
72728;SDS011;60843;52.062;4.508;2023-04-24T00:06:24;4.45;;;1.00;;
72728;SDS011;60843;52.062;4.508;2023-04-24T00:08:57;3.60;;;0.90;;
72728;SDS011;60843;52.062;4.508;2023-04-24T00:11:23;3.97;;;0.88;;
72728;SDS011;60843;52.062;4.508;2023-04-24T00:13:48;1.77;;;0.80;;
72728;SDS011;60843;52.062;4.508;2023-04-24T00:16:13;1.80;;;0.80;;
72728;SDS011;60843;52.062;4.508;2023-04-24T00:18:39;2.43;;;0.80;;
72728;SDS011;60843;52.062;4.508;2023-04-24T00:21:04;3.53;;;1.00;;
72728;SDS011;60843;52.062;4.508;2023-04-24T00:23:30;1.83;;;0.80;;
72728;SDS011;60843;52.062;4.508;2023-04-24T00:25:55;2.95;;;0.90;;
72728;SDS011;60843;52.062;4.508;2023-04-24T00:28:20;1.43;;;1.00;;
72728;SDS011;60843;52.062;4.508;2023-04-24T00:30:46;2.67;;;0.80;;
72728;SDS011;60843;52.062;4.508;2023-04-24T00:33:11;2.85;;;1.23;;
72728;SDS011;60843;52.062;4.508;2023-04-24T00:35:36;2.72;;;1.00;;
72728;SDS011;60843;52.062;4.508;2023-04-24T00:38:02;1.87;;;1.00;;
72728;SDS011;60843;52.062;4.508;2023-04-24T00:40:27;3.20;;;0.90;;
72728;SDS011;60843;52.062;4.508;2023-04-24T00:42:53;1.60;;;0.93;;
72728;SDS011;60843;52.062;4.508;2023-04-24T00:45:18;4.35;;;1.10;;
72728;SDS011;60843;52.062;4.508;2023-04-24T00:47:44;2.42;;;1.00;;
72728;SDS011;60843;52.062;4.508;2023-04-24T00:50:10;4.50;;;1.02;;
72728;SDS011;60843;52.062;4.508;2023-04-24T00:52:38;2.65;;;0.80;;
72728;SDS011;60843;52.062;4.508;2023-04-24T00:55:05;3.28;;;1.20;;
72728;SDS011;60843;52.062;4.508;2023-04-24T00:57:32;4.18;;;1.05;;
72728;SDS011;60843;52.062;4.508;2023-04-24T00:59:57;3.53;;;1.20;;
72728;SDS011;60843;52.062;4.508;2023-04-24T01:02:23;1.40;;;0.90;;
72728;SDS011;60843;52.062;4.508;2023-04-24T01:04:50;2.35;;;1.15;;
72728;SDS011;60843;52.062;4.508;2023-04-24T01:07:17;3.30;;;1.20;;
72728;SDS011;60843;52.062;4.508;2023-04-24T01:09:45;4.95;;;2.10;;
72728;SDS011;60843;52.062;4.508;2023-04-24T01:12:14;4.07;;;1.35;;
72728;SDS011;60843;52.062;4.508;2023-04-24T01:14:40;4.75;;;1.50;;
72728;SDS011;60843;52.062;4.508;2023-04-24T01:17:05;2.97;;;1.40;;
72728;SDS011;60843;52.062;4.508;2023-04-24T01:19:31;3.75;;;1.30;;
72728;SDS011;60843;52.062;4.508;2023-04-24T01:21:57;2.03;;;1.00;;
72728;SDS011;60843;52.062;4.508;2023-04-24T01:24:23;1.83;;;0.93;;
72728;SDS011;60843;52.062;4.508;2023-04-24T01:26:49;2.37;;;1.10;;
72728;SDS011;60843;52.062;4.508;2023-04-24T01:29:14;2.50;;;1.10;;
72728;SDS011;60843;52.062;4.508;2023-04-24T01:31:40;2.22;;;1.23;;
72728;SDS011;60843;52.062;4.508;2023-04-24T01:34:05;4.10;;;1.30;;
72728;SDS011;60843;52.062;4.508;2023-04-24T01:36:31;1.67;;;1.10;;
72728;SDS011;60843;52.062;4.508;2023-04-24T01:38:57;4.70;;;1.45;;
72728;SDS011;60843;52.062;4.508;2023-04-24T01:41:22;2.08;;;1.30;;
72728;SDS011;60843;52.062;4.508;2023-04-24T01:43:48;3.10;;;1.13;;
72728;SDS011;60843;52.062;4.508;2023-04-24T01:46:14;1.27;;;0.80;;
72728;SDS011;60843;52.062;4.508;2023-04-24T01:48:39;2.58;;;0.95;;
72728;SDS011;60843;52.062;4.508;2023-04-24T01:51:05;1.52;;;1.00;;
72728;SDS011;60843;52.062;4.508;2023-04-24T01:53:30;5.57;;;1.10;;
72728;SDS011;60843;52.062;4.508;2023-04-24T01:55:57;4.25;;;1.10;;
72728;SDS011;60843;52.062;4.508;2023-04-24T01:58:23;2.10;;;0.95;;
72728;SDS011;60843;52.062;4.508;2023-04-24T02:00:48;4.13;;;1.50;;
72728;SDS011;60843;52.062;4.508;2023-04-24T02:03:14;3.05;;;1.00;;
72728;SDS011;60843;52.062;4.508;2023-04-24T02:05:39;3.30;;;1.55;;
72728;SDS011;60843;52.062;4.508;2023-04-24T02:08:05;2.93;;;0.90;;
72728;SDS011;60843;52.062;4.508;2023-04-24T02:10:30;5.37;;;1.10;;
72728;SDS011;60843;52.062;4.508;2023-04-24T02:12:55;4.33;;;1.40;;
72728;SDS011;60843;52.062;4.508;2023-04-24T02:15:21;2.10;;;0.80;;
72728;SDS011;60843;52.062;4.508;2023-04-24T02:17:46;2.10;;;1.33;;
72728;SDS011;60843;52.062;4.508;2023-04-24T02:20:11;4.70;;;1.10;;
72728;SDS011;60843;52.062;4.508;2023-04-24T02:22:37;2.38;;;0.82;;
72728;SDS011;60843;52.062;4.508;2023-04-24T02:25:02;2.27;;;0.90;;
72728;SDS011;60843;52.062;4.508;2023-04-24T02:27:28;1.30;;;0.90;;
72728;SDS011;60843;52.062;4.508;2023-04-24T02:29:54;3.45;;;0.90;;
72728;SDS011;60843;52.062;4.508;2023-04-24T02:32:20;3.38;;;1.10;;
72728;SDS011;60843;52.062;4.508;2023-04-24T02:34:46;0.67;;;0.60;;
72728;SDS011;60843;52.062;4.508;2023-04-24T02:37:12;1.30;;;0.88;;
72728;SDS011;60843;52.062;4.508;2023-04-24T02:39:37;3.22;;;0.90;;
72728;SDS011;60843;52.062;4.508;2023-04-24T02:42:02;2.63;;;0.50;;
72728;SDS011;60843;52.062;4.508;2023-04-24T02:44:28;1.75;;;0.50;;
72728;SDS011;60843;52.062;4.508;2023-04-24T02:46:53;2.90;;;0.60;;
72728;SDS011;60843;52.062;4.508;2023-04-24T02:49:19;1.50;;;0.50;;
72728;SDS011;60843;52.062;4.508;2023-04-24T02:51:44;0.50;;;0.30;;
72728;SDS011;60843;52.062;4.508;2023-04-24T02:54:09;0.97;;;0.30;;
72728;SDS011;60843;52.062;4.508;2023-04-24T02:56:35;1.83;;;0.60;;
72728;SDS011;60843;52.062;4.508;2023-04-24T02:59:00;3.85;;;0.75;;
72728;SDS011;60843;52.062;4.508;2023-04-24T03:01:26;3.90;;;0.70;;
72728;SDS011;60843;52.062;4.508;2023-04-24T03:03:51;2.27;;;0.53;;
72728;SDS011;60843;52.062;4.508;2023-04-24T03:06:16;2.37;;;0.57;;
72728;SDS011;60843;52.062;4.508;2023-04-24T03:08:42;1.10;;;0.50;;
72728;SDS011;60843;52.062;4.508;2023-04-24T03:11:07;3.87;;;0.70;;
72728;SDS011;60843;52.062;4.508;2023-04-24T03:13:32;0.55;;;0.30;;
72728;SDS011;60843;52.062;4.508;2023-04-24T03:15:59;3.50;;;0.40;;
72728;SDS011;60843;52.062;4.508;2023-04-24T03:18:27;1.90;;;0.30;;
72728;SDS011;60843;52.062;4.508;2023-04-24T03:20:52;1.27;;;0.30;;
72728;SDS011;60843;52.062;4.508;2023-04-24T03:23:18;2.78;;;0.63;;
72728;SDS011;60843;52.062;4.508;2023-04-24T03:25:43;1.70;;;0.40;;
72728;SDS011;60843;52.062;4.508;2023-04-24T03:28:09;2.45;;;0.47;;
72728;SDS011;60843;52.062;4.508;2023-04-24T03:30:34;2.20;;;0.40;;
72728;SDS011;60843;52.062;4.508;2023-04-24T03:32:59;0.90;;;0.40;;
72728;SDS011;60843;52.062;4.508;2023-04-24T03:35:25;1.80;;;0.40;;
72728;SDS011;60843;52.062;4.508;2023-04-24T03:37:50;3.30;;;0.68;;
72728;SDS011;60843;52.062;4.508;2023-04-24T03:40:15;3.30;;;1.30;;
72728;SDS011;60843;52.062;4.508;2023-04-24T03:42:41;1.60;;;0.50;;
72728;SDS011;60843;52.062;4.508;2023-04-24T03:45:06;1.50;;;0.50;;
72728;SDS011;60843;52.062;4.508;2023-04-24T03:47:33;1.65;;;0.50;;
72728;SDS011;60843;52.062;4.508;2023-04-24T03:49:58;1.97;;;0.40;;
72728;SDS011;60843;52.062;4.508;2023-04-24T03:52:24;3.70;;;0.60;;
72728;SDS011;60843;52.062;4.508;2023-04-24T03:54:49;3.60;;;0.70;;
72728;SDS011;60843;52.062;4.508;2023-04-24T03:57:14;0.88;;;0.50;;
72728;SDS011;60843;52.062;4.508;2023-04-24T03:59:39;2.50;;;1.43;;
72728;SDS011;60843;52.062;4.508;2023-04-24T04:02:05;1.20;;;0.50;;
72728;SDS011;60843;52.062;4.508;2023-04-24T04:04:30;1.33;;;0.52;;
72728;SDS011;60843;52.062;4.508;2023-04-24T04:06:56;2.30;;;0.80;;
72728;SDS011;60843;52.062;4.508;2023-04-24T04:09:21;1.03;;;0.57;;
72728;SDS011;60843;52.062;4.508;2023-04-24T04:11:46;2.53;;;0.83;;
72728;SDS011;60843;52.062;4.508;2023-04-24T04:14:12;2.83;;;0.67;;
72728;SDS011;60843;52.062;4.508;2023-04-24T04:16:37;1.33;;;0.60;;
72728;SDS011;60843;52.062;4.508;2023-04-24T04:19:02;3.42;;;0.70;;
72728;SDS011;60843;52.062;4.508;2023-04-24T04:21:28;0.70;;;0.40;;
72728;SDS011;60843;52.062;4.508;2023-04-24T04:23:55;1.50;;;0.50;;
72728;SDS011;60843;52.062;4.508;2023-04-24T04:26:21;1.35;;;0.60;;
72728;SDS011;60843;52.062;4.508;2023-04-24T04:28:50;0.88;;;0.70;;
72728;SDS011;60843;52.062;4.508;2023-04-24T04:31:16;4.05;;;0.98;;
72728;SDS011;60843;52.062;4.508;2023-04-24T04:33:41;3.80;;;0.87;;
72728;SDS011;60843;52.062;4.508;2023-04-24T04:36:06;2.53;;;1.05;;
72728;SDS011;60843;52.062;4.508;2023-04-24T04:38:32;3.05;;;0.95;;
72728;SDS011;60843;52.062;4.508;2023-04-24T04:41:02;2.15;;;1.17;;
72728;SDS011;60843;52.062;4.508;2023-04-24T04:43:28;4.47;;;1.42;;
72728;SDS011;60843;52.062;4.508;2023-04-24T04:45:53;1.73;;;1.03;;
72728;SDS011;60843;52.062;4.508;2023-04-24T04:48:20;2.38;;;1.58;;
72728;SDS011;60843;52.062;4.508;2023-04-24T04:50:46;2.00;;;1.42;;
72728;SDS011;60843;52.062;4.508;2023-04-24T04:53:11;1.83;;;1.30;;
72728;SDS011;60843;52.062;4.508;2023-04-24T04:55:37;2.53;;;0.93;;
72728;SDS011;60843;52.062;4.508;2023-04-24T04:58:02;1.80;;;1.13;;
72728;SDS011;60843;52.062;4.508;2023-04-24T05:00:31;3.88;;;1.60;;
72728;SDS011;60843;52.062;4.508;2023-04-24T05:03:02;7.90;;;2.80;;
72728;SDS011;60843;52.062;4.508;2023-04-24T05:05:28;4.35;;;2.35;;
72728;SDS011;60843;52.062;4.508;2023-04-24T05:07:53;0.00;;;0.00;;
72728;SDS011;60843;52.062;4.508;2023-04-24T05:10:19;0.00;;;0.00;;
72728;SDS011;60843;52.062;4.508;2023-04-24T05:12:44;0.00;;;0.00;;
72728;SDS011;60843;52.062;4.508;2023-04-24T05:15:10;0.10;;;0.10;;
72728;SDS011;60843;52.062;4.508;2023-04-24T05:17:36;0.30;;;0.30;;
72728;SDS011;60843;52.062;4.508;2023-04-24T05:20:01;0.20;;;0.20;;
72728;SDS011;60843;52.062;4.508;2023-04-24T05:22:30;1.65;;;0.38;;
72728;SDS011;60843;52.062;4.508;2023-04-24T05:24:55;0.17;;;0.17;;
72728;SDS011;60843;52.062;4.508;2023-04-24T05:27:21;0.98;;;0.35;;
72728;SDS011;60843;52.062;4.508;2023-04-24T05:29:46;2.35;;;0.70;;
72728;SDS011;60843;52.062;4.508;2023-04-24T05:32:12;0.43;;;0.30;;
72728;SDS011;60843;52.062;4.508;2023-04-24T05:34:37;0.00;;;0.00;;
72728;SDS011;60843;52.062;4.508;2023-04-24T05:37:02;0.00;;;0.00;;
72728;SDS011;60843;52.062;4.508;2023-04-24T05:39:28;0.00;;;0.00;;
72728;SDS011;60843;52.062;4.508;2023-04-24T05:41:54;0.43;;;0.43;;
72728;SDS011;60843;52.062;4.508;2023-04-24T05:44:20;0.10;;;0.10;;
72728;SDS011;60843;52.062;4.508;2023-04-24T05:46:46;0.00;;;0.00;;
72728;SDS011;60843;52.062;4.508;2023-04-24T05:49:11;0.35;;;0.35;;
72728;SDS011;60843;52.062;4.508;2023-04-24T05:51:36;0.00;;;0.00;;
72728;SDS011;60843;52.062;4.508;2023-04-24T05:54:02;0.30;;;0.30;;
72728;SDS011;60843;52.062;4.508;2023-04-24T05:56:28;0.00;;;0.00;;
72728;SDS011;60843;52.062;4.508;2023-04-24T05:58:53;0.05;;;0.05;;
72728;SDS011;60843;52.062;4.508;2023-04-24T06:01:18;0.00;;;0.00;;
72728;SDS011;60843;52.062;4.508;2023-04-24T06:03:44;0.10;;;0.10;;
72728;SDS011;60843;52.062;4.508;2023-04-24T06:06:10;0.00;;;0.00;;
72728;SDS011;60843;52.062;4.508;2023-04-24T06:08:35;0.20;;;0.20;;
72728;SDS011;60843;52.062;4.508;2023-04-24T06:11:01;0.55;;;0.55;;
72728;SDS011;60843;52.062;4.508;2023-04-24T06:13:26;0.00;;;0.00;;
72728;SDS011;60843;52.062;4.508;2023-04-24T06:15:52;0.45;;;0.45;;
72728;SDS011;60843;52.062;4.508;2023-04-24T06:18:17;0.00;;;0.00;;
72728;SDS011;60843;52.062;4.508;2023-04-24T06:20:44;0.00;;;0.00;;
72728;SDS011;60843;52.062;4.508;2023-04-24T06:23:10;0.30;;;0.30;;
72728;SDS011;60843;52.062;4.508;2023-04-24T06:25:43;0.00;;;0.00;;
72728;SDS011;60843;52.062;4.508;2023-04-24T06:28:08;0.00;;;0.00;;
72728;SDS011;60843;52.062;4.508;2023-04-24T06:30:34;0.00;;;0.00;;
72728;SDS011;60843;52.062;4.508;2023-04-24T06:32:59;0.00;;;0.00;;
72728;SDS011;60843;52.062;4.508;2023-04-24T06:35:24;0.20;;;0.20;;
72728;SDS011;60843;52.062;4.508;2023-04-24T06:37:50;0.00;;;0.00;;
72728;SDS011;60843;52.062;4.508;2023-04-24T06:40:16;0.00;;;0.00;;
72728;SDS011;60843;52.062;4.508;2023-04-24T06:42:43;26.92;;;1.48;;
72728;SDS011;60843;52.062;4.508;2023-04-24T06:45:09;0.90;;;0.30;;
72728;SDS011;60843;52.062;4.508;2023-04-24T06:47:35;0.05;;;0.05;;
72728;SDS011;60843;52.062;4.508;2023-04-24T06:50:01;0.00;;;0.00;;
72728;SDS011;60843;52.062;4.508;2023-04-24T06:52:26;0.10;;;0.10;;
72728;SDS011;60843;52.062;4.508;2023-04-24T06:54:52;0.00;;;0.00;;
72728;SDS011;60843;52.062;4.508;2023-04-24T06:57:17;0.00;;;0.00;;
72728;SDS011;60843;52.062;4.508;2023-04-24T06:59:43;0.00;;;0.00;;
72728;SDS011;60843;52.062;4.508;2023-04-24T07:02:08;0.00;;;0.00;;
72728;SDS011;60843;52.062;4.508;2023-04-24T07:04:34;0.00;;;0.00;;
72728;SDS011;60843;52.062;4.508;2023-04-24T07:06:59;0.00;;;0.00;;
72728;SDS011;60843;52.062;4.508;2023-04-24T07:12:38;0.00;;;0.00;;
72728;SDS011;60843;52.062;4.508;2023-04-24T07:15:07;0.32;;;0.32;;
72728;SDS011;60843;52.062;4.508;2023-04-24T07:17:33;0.00;;;0.00;;
72728;SDS011;60843;52.062;4.508;2023-04-24T07:19:59;0.00;;;0.00;;
72728;SDS011;60843;52.062;4.508;2023-04-24T07:22:25;0.00;;;0.00;;
72728;SDS011;60843;52.062;4.508;2023-04-24T07:24:50;0.00;;;0.00;;
72728;SDS011;60843;52.062;4.508;2023-04-24T07:27:16;0.00;;;0.00;;
72728;SDS011;60843;52.062;4.508;2023-04-24T07:29:41;0.00;;;0.00;;
72728;SDS011;60843;52.062;4.508;2023-04-24T07:32:07;0.00;;;0.00;;
72728;SDS011;60843;52.062;4.508;2023-04-24T07:34:32;0.00;;;0.00;;
72728;SDS011;60843;52.062;4.508;2023-04-24T07:36:58;0.00;;;0.00;;
72728;SDS011;60843;52.062;4.508;2023-04-24T07:39:23;0.00;;;0.00;;
72728;SDS011;60843;52.062;4.508;2023-04-24T07:41:49;0.00;;;0.00;;
72728;SDS011;60843;52.062;4.508;2023-04-24T07:44:14;0.00;;;0.00;;
72728;SDS011;60843;52.062;4.508;2023-04-24T07:46:40;0.00;;;0.00;;
72728;SDS011;60843;52.062;4.508;2023-04-24T07:49:11;0.00;;;0.00;;
72728;SDS011;60843;52.062;4.508;2023-04-24T07:51:36;0.00;;;0.00;;
72728;SDS011;60843;52.062;4.508;2023-04-24T07:54:03;0.00;;;0.00;;
72728;SDS011;60843;52.062;4.508;2023-04-24T07:56:32;0.00;;;0.00;;
72728;SDS011;60843;52.062;4.508;2023-04-24T07:58:58;0.00;;;0.00;;
72728;SDS011;60843;52.062;4.508;2023-04-24T08:01:23;0.00;;;0.00;;
72728;SDS011;60843;52.062;4.508;2023-04-24T08:03:49;0.00;;;0.00;;
72728;SDS011;60843;52.062;4.508;2023-04-24T08:06:14;0.00;;;0.00;;
72728;SDS011;60843;52.062;4.508;2023-04-24T08:08:39;0.00;;;0.00;;
72728;SDS011;60843;52.062;4.508;2023-04-24T08:11:04;0.03;;;0.03;;
72728;SDS011;60843;52.062;4.508;2023-04-24T08:13:30;0.00;;;0.00;;
72728;SDS011;60843;52.062;4.508;2023-04-24T08:15:56;0.00;;;0.00;;
72728;SDS011;60843;52.062;4.508;2023-04-24T08:18:21;0.00;;;0.00;;
72728;SDS011;60843;52.062;4.508;2023-04-24T08:20:47;0.00;;;0.00;;
72728;SDS011;60843;52.062;4.508;2023-04-24T08:23:12;0.00;;;0.00;;
72728;SDS011;60843;52.062;4.508;2023-04-24T08:25:38;0.00;;;0.00;;
72728;SDS011;60843;52.062;4.508;2023-04-24T08:28:05;0.00;;;0.00;;
72728;SDS011;60843;52.062;4.508;2023-04-24T08:30:31;0.00;;;0.00;;
72728;SDS011;60843;52.062;4.508;2023-04-24T08:32:56;0.00;;;0.00;;
72728;SDS011;60843;52.062;4.508;2023-04-24T08:35:22;0.00;;;0.00;;
72728;SDS011;60843;52.062;4.508;2023-04-24T08:37:48;0.00;;;0.00;;
72728;SDS011;60843;52.062;4.508;2023-04-24T08:40:14;0.00;;;0.00;;
72728;SDS011;60843;52.062;4.508;2023-04-24T08:42:43;0.00;;;0.00;;
72728;SDS011;60843;52.062;4.508;2023-04-24T08:45:09;0.00;;;0.00;;
72728;SDS011;60843;52.062;4.508;2023-04-24T08:47:35;0.00;;;0.00;;
72728;SDS011;60843;52.062;4.508;2023-04-24T08:50:03;0.00;;;0.00;;
72728;SDS011;60843;52.062;4.508;2023-04-24T08:52:32;0.00;;;0.00;;
72728;SDS011;60843;52.062;4.508;2023-04-24T08:54:57;0.00;;;0.00;;
72728;SDS011;60843;52.062;4.508;2023-04-24T08:57:24;0.00;;;0.00;;
72728;SDS011;60843;52.062;4.508;2023-04-24T08:59:50;0.00;;;0.00;;
72728;SDS011;60843;52.062;4.508;2023-04-24T09:02:15;0.00;;;0.00;;
72728;SDS011;60843;52.062;4.508;2023-04-24T09:04:41;0.00;;;0.00;;
72728;SDS011;60843;52.062;4.508;2023-04-24T09:07:08;0.00;;;0.00;;
72728;SDS011;60843;52.062;4.508;2023-04-24T09:09:35;0.00;;;0.00;;
72728;SDS011;60843;52.062;4.508;2023-04-24T09:12:03;0.65;;;0.43;;
72728;SDS011;60843;52.062;4.508;2023-04-24T09:14:29;7.88;;;0.55;;
72728;SDS011;60843;52.062;4.508;2023-04-24T09:16:56;6.10;;;0.82;;
72728;SDS011;60843;52.062;4.508;2023-04-24T09:19:21;3.23;;;0.30;;
72728;SDS011;60843;52.062;4.508;2023-04-24T09:21:47;5.85;;;0.80;;
72728;SDS011;60843;52.062;4.508;2023-04-24T09:24:16;3.38;;;0.88;;
72728;SDS011;60843;52.062;4.508;2023-04-24T09:26:43;7.85;;;1.00;;
72728;SDS011;60843;52.062;4.508;2023-04-24T09:29:14;4.75;;;0.88;;
72728;SDS011;60843;52.062;4.508;2023-04-24T09:31:58;7.40;;;1.05;;
72728;SDS011;60843;52.062;4.508;2023-04-24T09:34:24;2.35;;;0.47;;
72728;SDS011;60843;52.062;4.508;2023-04-24T09:36:54;2.13;;;0.55;;
72728;SDS011;60843;52.062;4.508;2023-04-24T09:39:20;1.83;;;0.50;;
72728;SDS011;60843;52.062;4.508;2023-04-24T09:41:46;2.63;;;0.90;;
72728;SDS011;60843;52.062;4.508;2023-04-24T09:44:15;3.15;;;0.30;;
72728;SDS011;60843;52.062;4.508;2023-04-24T09:46:56;4.22;;;0.80;;
72728;SDS011;60843;52.062;4.508;2023-04-24T09:49:24;1.30;;;0.45;;
72728;SDS011;60843;52.062;4.508;2023-04-24T09:51:51;1.02;;;0.20;;
72728;SDS011;60843;52.062;4.508;2023-04-24T09:54:18;0.50;;;0.30;;
72728;SDS011;60843;52.062;4.508;2023-04-24T09:56:47;1.85;;;0.60;;
72728;SDS011;60843;52.062;4.508;2023-04-24T09:59:14;2.63;;;0.98;;
72728;SDS011;60843;52.062;4.508;2023-04-24T10:01:40;2.22;;;0.50;;
72728;SDS011;60843;52.062;4.508;2023-04-24T10:04:22;2.25;;;0.40;;
72728;SDS011;60843;52.062;4.508;2023-04-24T10:06:52;2.50;;;0.70;;
72728;SDS011;60843;52.062;4.508;2023-04-24T10:09:22;2.72;;;0.35;;
72728;SDS011;60843;52.062;4.508;2023-04-24T10:11:49;0.63;;;0.25;;
72728;SDS011;60843;52.062;4.508;2023-04-24T10:14:17;0.82;;;0.35;;
72728;SDS011;60843;52.062;4.508;2023-04-24T10:16:44;2.88;;;0.57;;
72728;SDS011;60843;52.062;4.508;2023-04-24T10:19:12;4.35;;;0.60;;
72728;SDS011;60843;52.062;4.508;2023-04-24T10:21:38;1.00;;;0.38;;
72728;SDS011;60843;52.062;4.508;2023-04-24T10:24:07;1.10;;;0.30;;
72728;SDS011;60843;52.062;4.508;2023-04-24T10:26:34;5.85;;;0.77;;
72728;SDS011;60843;52.062;4.508;2023-04-24T10:29:00;1.45;;;0.35;;
72728;SDS011;60843;52.062;4.508;2023-04-24T10:31:26;6.07;;;0.90;;
72728;SDS011;60843;52.062;4.508;2023-04-24T10:33:52;4.78;;;0.60;;
72728;SDS011;60843;52.062;4.508;2023-04-24T10:36:19;4.07;;;0.45;;
72728;SDS011;60843;52.062;4.508;2023-04-24T10:38:47;4.35;;;0.55;;
72728;SDS011;60843;52.062;4.508;2023-04-24T10:41:16;5.18;;;1.10;;
72728;SDS011;60843;52.062;4.508;2023-04-24T10:43:47;2.60;;;0.60;;
72728;SDS011;60843;52.062;4.508;2023-04-24T10:46:19;2.85;;;1.13;;
72728;SDS011;60843;52.062;4.508;2023-04-24T10:48:53;1.08;;;0.40;;
72728;SDS011;60843;52.062;4.508;2023-04-24T10:51:22;3.88;;;0.73;;
72728;SDS011;60843;52.062;4.508;2023-04-24T10:53:49;2.47;;;0.90;;
72728;SDS011;60843;52.062;4.508;2023-04-24T10:56:15;4.45;;;0.55;;
72728;SDS011;60843;52.062;4.508;2023-04-24T10:58:44;5.50;;;0.90;;
72728;SDS011;60843;52.062;4.508;2023-04-24T11:01:23;4.75;;;0.70;;
72728;SDS011;60843;52.062;4.508;2023-04-24T11:03:50;1.50;;;0.45;;
72728;SDS011;60843;52.062;4.508;2023-04-24T11:06:27;0.88;;;0.40;;
72728;SDS011;60843;52.062;4.508;2023-04-24T11:09:03;3.63;;;1.33;;
72728;SDS011;60843;52.062;4.508;2023-04-24T11:11:33;1.92;;;0.40;;
72728;SDS011;60843;52.062;4.508;2023-04-24T11:14:03;2.13;;;0.47;;
72728;SDS011;60843;52.062;4.508;2023-04-24T11:16:32;4.07;;;0.30;;
72728;SDS011;60843;52.062;4.508;2023-04-24T11:19:04;1.08;;;0.28;;
72728;SDS011;60843;52.062;4.508;2023-04-24T11:21:43;2.05;;;0.35;;
72728;SDS011;60843;52.062;4.508;2023-04-24T11:27:15;2.95;;;0.60;;
72728;SDS011;60843;52.062;4.508;2023-04-24T11:32:30;1.10;;;0.43;;
72728;SDS011;60843;52.062;4.508;2023-04-24T11:37:28;1.48;;;0.47;;
72728;SDS011;60843;52.062;4.508;2023-04-24T11:39:58;2.58;;;0.57;;
72728;SDS011;60843;52.062;4.508;2023-04-24T11:42:24;6.75;;;0.80;;
72728;SDS011;60843;52.062;4.508;2023-04-24T11:44:51;5.50;;;0.80;;
72728;SDS011;60843;52.062;4.508;2023-04-24T11:47:17;6.38;;;0.80;;
72728;SDS011;60843;52.062;4.508;2023-04-24T11:49:43;1.83;;;0.50;;
72728;SDS011;60843;52.062;4.508;2023-04-24T11:52:08;4.50;;;0.93;;
72728;SDS011;60843;52.062;4.508;2023-04-24T11:54:34;1.27;;;0.80;;
72728;SDS011;60843;52.062;4.508;2023-04-24T11:56:59;3.42;;;0.60;;
72728;SDS011;60843;52.062;4.508;2023-04-24T11:59:29;4.43;;;0.88;;
72728;SDS011;60843;52.062;4.508;2023-04-24T12:01:54;5.17;;;0.97;;
72728;SDS011;60843;52.062;4.508;2023-04-24T12:04:19;6.43;;;0.95;;
72728;SDS011;60843;52.062;4.508;2023-04-24T12:09:26;4.45;;;0.85;;
72728;SDS011;60843;52.062;4.508;2023-04-24T12:11:55;8.02;;;1.05;;
72728;SDS011;60843;52.062;4.508;2023-04-24T12:14:24;7.60;;;0.93;;
72728;SDS011;60843;52.062;4.508;2023-04-24T12:16:50;6.47;;;1.17;;
72728;SDS011;60843;52.062;4.508;2023-04-24T12:19:22;7.78;;;1.20;;
72728;SDS011;60843;52.062;4.508;2023-04-24T12:24:26;5.78;;;1.48;;
72728;SDS011;60843;52.062;4.508;2023-04-24T12:26:51;7.10;;;1.30;;
72728;SDS011;60843;52.062;4.508;2023-04-24T12:29:21;4.78;;;0.95;;
72728;SDS011;60843;52.062;4.508;2023-04-24T12:31:46;3.97;;;0.82;;
72728;SDS011;60843;52.062;4.508;2023-04-24T12:34:22;6.97;;;1.30;;
72728;SDS011;60843;52.062;4.508;2023-04-24T12:36:48;1.33;;;0.50;;
72728;SDS011;60843;52.062;4.508;2023-04-24T12:39:17;3.42;;;0.68;;
72728;SDS011;60843;52.062;4.508;2023-04-24T12:41:53;5.95;;;1.27;;
72728;SDS011;60843;52.062;4.508;2023-04-24T12:44:29;9.50;;;1.48;;
72728;SDS011;60843;52.062;4.508;2023-04-24T12:46:55;7.38;;;0.95;;
72728;SDS011;60843;52.062;4.508;2023-04-24T12:49:21;3.40;;;0.83;;
72728;SDS011;60843;52.062;4.508;2023-04-24T12:51:46;6.10;;;1.00;;
72728;SDS011;60843;52.062;4.508;2023-04-24T12:54:11;6.53;;;1.10;;
72728;SDS011;60843;52.062;4.508;2023-04-24T12:56:37;9.60;;;1.50;;
72728;SDS011;60843;52.062;4.508;2023-04-24T12:59:04;15.02;;;2.05;;
72728;SDS011;60843;52.062;4.508;2023-04-24T13:01:30;2.97;;;1.00;;
72728;SDS011;60843;52.062;4.508;2023-04-24T13:03:55;8.10;;;1.42;;
72728;SDS011;60843;52.062;4.508;2023-04-24T13:06:21;7.93;;;1.47;;
72728;SDS011;60843;52.062;4.508;2023-04-24T13:08:46;5.80;;;1.20;;
72728;SDS011;60843;52.062;4.508;2023-04-24T13:11:12;3.40;;;1.17;;
72728;SDS011;60843;52.062;4.508;2023-04-24T13:13:38;9.20;;;1.33;;
72728;SDS011;60843;52.062;4.508;2023-04-24T13:16:03;4.53;;;1.43;;
72728;SDS011;60843;52.062;4.508;2023-04-24T13:18:29;2.80;;;0.88;;
72728;SDS011;60843;52.062;4.508;2023-04-24T13:20:54;4.50;;;1.25;;
72728;SDS011;60843;52.062;4.508;2023-04-24T13:23:20;4.65;;;1.08;;
72728;SDS011;60843;52.062;4.508;2023-04-24T13:25:46;4.25;;;0.77;;
72728;SDS011;60843;52.062;4.508;2023-04-24T13:28:12;2.20;;;0.98;;
72728;SDS011;60843;52.062;4.508;2023-04-24T13:30:37;12.15;;;1.58;;
72728;SDS011;60843;52.062;4.508;2023-04-24T13:33:03;6.07;;;1.25;;
72728;SDS011;60843;52.062;4.508;2023-04-24T13:35:29;3.22;;;1.25;;
72728;SDS011;60843;52.062;4.508;2023-04-24T13:37:55;2.28;;;1.08;;
72728;SDS011;60843;52.062;4.508;2023-04-24T13:40:22;7.78;;;1.58;;
72728;SDS011;60843;52.062;4.508;2023-04-24T13:42:47;2.28;;;0.93;;
72728;SDS011;60843;52.062;4.508;2023-04-24T13:45:13;5.45;;;1.25;;
72728;SDS011;60843;52.062;4.508;2023-04-24T13:47:39;3.28;;;1.10;;
72728;SDS011;60843;52.062;4.508;2023-04-24T13:50:06;10.23;;;1.90;;
72728;SDS011;60843;52.062;4.508;2023-04-24T13:52:33;5.90;;;1.98;;
72728;SDS011;60843;52.062;4.508;2023-04-24T13:54:58;8.00;;;1.70;;
72728;SDS011;60843;52.062;4.508;2023-04-24T13:57:24;5.30;;;1.08;;
72728;SDS011;60843;52.062;4.508;2023-04-24T13:59:49;7.30;;;1.30;;
72728;SDS011;60843;52.062;4.508;2023-04-24T14:02:15;4.25;;;1.00;;
72728;SDS011;60843;52.062;4.508;2023-04-24T14:04:40;7.97;;;1.90;;
72728;SDS011;60843;52.062;4.508;2023-04-24T14:07:05;21.73;;;5.37;;
72728;SDS011;60843;52.062;4.508;2023-04-24T14:09:31;18.17;;;5.47;;
72728;SDS011;60843;52.062;4.508;2023-04-24T14:11:57;10.15;;;2.80;;
72728;SDS011;60843;52.062;4.508;2023-04-24T14:14:22;4.15;;;1.20;;
72728;SDS011;60843;52.062;4.508;2023-04-24T14:16:48;7.15;;;2.10;;
72728;SDS011;60843;52.062;4.508;2023-04-24T14:19:13;14.15;;;2.30;;
72728;SDS011;60843;52.062;4.508;2023-04-24T14:21:39;14.47;;;2.40;;
72728;SDS011;60843;52.062;4.508;2023-04-24T14:24:04;6.30;;;1.57;;
72728;SDS011;60843;52.062;4.508;2023-04-24T14:26:29;6.00;;;1.53;;
72728;SDS011;60843;52.062;4.508;2023-04-24T14:28:55;6.70;;;1.42;;
72728;SDS011;60843;52.062;4.508;2023-04-24T14:31:20;2.70;;;0.83;;
72728;SDS011;60843;52.062;4.508;2023-04-24T14:33:45;6.23;;;1.20;;
72728;SDS011;60843;52.062;4.508;2023-04-24T14:36:11;10.03;;;1.80;;
72728;SDS011;60843;52.062;4.508;2023-04-24T14:38:37;11.73;;;2.25;;
72728;SDS011;60843;52.062;4.508;2023-04-24T14:41:02;9.93;;;1.60;;
72728;SDS011;60843;52.062;4.508;2023-04-24T14:43:33;8.02;;;1.45;;
72728;SDS011;60843;52.062;4.508;2023-04-24T14:46:00;7.78;;;1.88;;
72728;SDS011;60843;52.062;4.508;2023-04-24T14:48:25;2.72;;;1.08;;
72728;SDS011;60843;52.062;4.508;2023-04-24T14:50:50;10.07;;;2.20;;
72728;SDS011;60843;52.062;4.508;2023-04-24T14:53:16;3.83;;;1.10;;
72728;SDS011;60843;52.062;4.508;2023-04-24T14:55:41;6.05;;;1.85;;
72728;SDS011;60843;52.062;4.508;2023-04-24T14:58:07;10.83;;;2.30;;
72728;SDS011;60843;52.062;4.508;2023-04-24T15:00:32;9.30;;;1.20;;